< < Back
Terminal Aerodrome Forecast


Current Version              Previous Versions:   1  2  3  4  5  6  7  8  9  

Terminal Aerodrome Forecast

760
FTUS42 KJAX 231300 AAA
TAFJAX
TAF AMD
KJAX 231354Z 2314/2412 28008KT P6SM FEW035
     FM232100 08009KT P6SM SCT050
     FM240100 VRB04KT P6SM FEW060 SCT250=



Latest METAR

951
SAUS80 KWBC 232000 CCA
MTRJAX
METAR KJAX 231956Z 28008KT 220V340 10SM SCT045 29/17 A2985 RMK AO2
SLP109 T02890167


USA.gov is the U.S. government's official web portal to all federal, state and local government web resources and services.